createdAt,value
2023-02-02T00:00:15.264Z,9.278419
2023-02-02T00:01:15.234Z,9.278468
2023-02-02T00:02:15.223Z,9.278398
2023-02-02T00:03:15.191Z,9.278461
2023-02-02T00:04:15.239Z,9.278399
2023-02-02T00:05:15.207Z,9.278374
2023-02-02T00:06:15.142Z,9.278358
2023-02-02T00:07:15.197Z,9.278354
2023-02-02T00:08:15.118Z,9.278323
2023-02-02T00:09:15.105Z,9.278397
2023-02-02T00:10:15.109Z,9.278348
2023-02-02T00:11:15.054Z,9.278392
2023-02-02T00:12:15.083Z,9.278367
2023-02-02T00:13:15.041Z,9.278371
2023-02-02T00:14:15.011Z,9.278399
2023-02-02T00:15:15.044Z,9.278372
2023-02-02T00:16:14.991Z,9.278371
2023-02-02T00:17:14.965Z,9.278337
2023-02-02T00:18:14.944Z,9.278277
2023-02-02T00:19:14.943Z,9.278101
2023-02-02T00:20:14.932Z,9.278176
2023-02-02T00:21:14.906Z,9.278380
2023-02-02T00:22:14.891Z,9.278282
2023-02-02T00:23:14.873Z,9.278295
2023-02-02T00:24:14.836Z,9.278216
2023-02-02T00:25:14.838Z,9.278235
2023-02-02T00:26:14.789Z,9.278265
2023-02-02T00:27:14.782Z,9.278245
2023-02-02T00:28:14.771Z,9.278290
2023-02-02T00:29:14.805Z,9.278341
2023-02-02T00:30:14.756Z,9.278349
2023-02-02T00:31:14.767Z,9.278333
2023-02-02T00:32:14.709Z,9.278156
2023-02-02T00:33:14.723Z,9.278155
2023-02-02T00:34:14.672Z,9.278146
2023-02-02T00:35:14.680Z,9.278259
2023-02-02T00:36:14.643Z,9.278461
2023-02-02T00:37:14.615Z,9.278405
2023-02-02T00:38:14.596Z,9.278335
2023-02-02T00:39:14.587Z,9.278300
2023-02-02T00:40:14.629Z,9.278430
2023-02-02T00:41:14.566Z,9.278474
2023-02-02T00:42:14.527Z,9.278295
2023-02-02T00:43:14.574Z,9.278291
2023-02-02T00:44:14.514Z,9.278358
2023-02-02T00:45:14.515Z,9.278203
2023-02-02T00:46:14.463Z,9.278153
2023-02-02T00:47:14.446Z,9.278152
2023-02-02T00:48:14.433Z,9.278265
2023-02-02T00:49:14.416Z,9.278068
2023-02-02T00:50:14.425Z,9.278028
2023-02-02T00:51:14.384Z,9.278188
2023-02-02T00:52:14.364Z,9.278268
2023-02-02T00:53:14.362Z,9.278186
2023-02-02T00:54:14.341Z,9.278155
2023-02-02T00:55:14.352Z,9.278268
2023-02-02T00:56:14.298Z,9.278284
2023-02-02T00:57:14.277Z,9.278160
2023-02-02T00:58:14.271Z,9.278251
2023-02-02T00:59:14.244Z,9.278262
2023-02-02T01:00:14.281Z,9.278111
2023-02-02T01:01:14.217Z,9.278267
2023-02-02T01:02:14.256Z,9.278135
2023-02-02T01:03:14.177Z,9.278147
2023-02-02T01:04:14.184Z,9.278256
2023-02-02T01:05:14.288Z,9.278303
2023-02-02T01:06:14.142Z,9.278398
2023-02-02T01:07:14.101Z,9.278294
2023-02-02T01:08:14.087Z,9.278507
2023-02-02T01:09:14.094Z,9.278633
2023-02-02T01:10:47.687Z,9.278569
2023-02-02T01:11:14.056Z,9.278494
2023-02-02T01:12:14.028Z,9.278405
2023-02-02T01:13:14.019Z,9.278383
2023-02-02T01:14:14.021Z,9.278383
2023-02-02T01:15:14.023Z,9.278383
2023-02-02T01:16:14.021Z,9.278459
2023-02-02T01:17:13.944Z,9.278426
2023-02-02T01:18:13.937Z,9.278330
2023-02-02T01:19:13.924Z,9.278296
2023-02-02T01:20:13.925Z,9.278280
2023-02-02T01:21:13.979Z,9.278219
2023-02-02T01:22:13.886Z,9.278255
2023-02-02T01:23:13.848Z,9.278361
2023-02-02T01:24:13.834Z,9.278323
2023-02-02T01:25:13.850Z,9.278450
2023-02-02T01:26:13.807Z,9.278481
2023-02-02T01:27:13.796Z,9.278378
2023-02-02T01:28:13.772Z,9.278366
2023-02-02T01:29:13.753Z,9.278139
2023-02-02T01:30:13.764Z,9.278178
2023-02-02T01:31:13.832Z,9.278241
2023-02-02T01:32:13.694Z,9.278201
2023-02-02T01:33:13.681Z,9.278558
2023-02-02T01:34:13.669Z,9.278264
2023-02-02T01:35:13.675Z,9.278096
2023-02-02T01:36:13.660Z,9.278203
2023-02-02T01:37:13.614Z,9.278045
2023-02-02T01:38:13.600Z,9.278151
2023-02-02T01:39:13.584Z,9.278354
2023-02-02T01:40:13.582Z,9.278708
2023-02-02T01:41:13.534Z,9.278762
2023-02-02T01:42:13.534Z,9.278754
2023-02-02T01:43:13.511Z,9.278846
2023-02-02T01:44:13.503Z,9.278517
2023-02-02T01:45:13.510Z,9.278721
2023-02-02T01:46:13.493Z,9.278475
2023-02-02T01:47:13.434Z,9.278538
2023-02-02T01:48:13.440Z,9.278208
2023-02-02T01:49:13.410Z,9.277799
2023-02-02T01:50:13.411Z,9.277783
2023-02-02T01:51:13.367Z,9.277761
2023-02-02T01:52:13.356Z,9.278060
2023-02-02T01:53:13.334Z,9.277845
2023-02-02T01:54:13.317Z,9.277966
2023-02-02T01:55:13.325Z,9.278017
2023-02-02T01:56:13.281Z,9.277981
2023-02-02T01:57:13.276Z,9.277925
2023-02-02T01:58:13.240Z,9.278191
2023-02-02T01:59:13.245Z,9.278323
2023-02-02T02:00:13.253Z,9.278025
2023-02-02T02:01:13.221Z,9.277905
2023-02-02T02:02:13.226Z,9.277967
2023-02-02T02:03:13.170Z,9.277962
2023-02-02T02:04:13.154Z,9.277778
2023-02-02T02:05:13.174Z,9.277936
2023-02-02T02:06:13.195Z,9.277817
2023-02-02T02:07:13.111Z,9.278029
2023-02-02T02:08:13.088Z,9.278071
2023-02-02T02:09:13.078Z,9.277923
2023-02-02T02:10:13.092Z,9.277643
2023-02-02T02:11:13.069Z,9.277509
2023-02-02T02:12:13.023Z,9.277752
2023-02-02T02:13:13.013Z,9.277758
2023-02-02T02:14:12.992Z,9.277867
2023-02-02T02:15:13.006Z,9.278218
2023-02-02T02:16:12.977Z,9.278394
2023-02-02T02:17:13.936Z,9.278645
2023-02-02T02:18:12.923Z,9.278456
2023-02-02T02:19:12.925Z,9.278345
2023-02-02T02:20:12.922Z,9.278056
2023-02-02T02:21:12.854Z,9.278226
2023-02-02T02:22:12.836Z,9.278281
2023-02-02T02:23:12.834Z,9.278317
2023-02-02T02:24:12.809Z,9.278331
2023-02-02T02:25:13.827Z,9.278352
2023-02-02T02:26:12.776Z,9.278328
2023-02-02T02:27:12.760Z,9.278275
2023-02-02T02:28:12.794Z,9.278398
2023-02-02T02:29:12.726Z,9.278456
2023-02-02T02:30:12.722Z,9.278482
2023-02-02T02:31:12.786Z,9.278501
2023-02-02T02:32:12.697Z,9.278526
2023-02-02T02:33:12.703Z,9.278393
2023-02-02T02:34:12.667Z,9.278406
2023-02-02T02:35:12.635Z,9.278412
2023-02-02T02:36:12.641Z,9.278466
2023-02-02T02:37:12.605Z,9.278397
2023-02-02T02:38:12.583Z,9.278474
2023-02-02T02:39:12.563Z,9.278380
2023-02-02T02:40:12.547Z,9.278400
2023-02-02T02:41:12.561Z,9.278413
2023-02-02T02:42:12.534Z,9.278445
2023-02-02T02:43:12.488Z,9.278542
2023-02-02T02:44:12.497Z,9.278591
2023-02-02T02:45:12.446Z,9.278680
2023-02-02T02:46:13.477Z,9.278544
2023-02-02T02:47:12.425Z,9.278570
2023-02-02T02:48:12.428Z,9.278457
2023-02-02T02:49:12.409Z,9.278412
2023-02-02T02:50:12.375Z,9.278387
2023-02-02T02:51:12.381Z,9.278316
2023-02-02T02:52:12.348Z,9.278311
2023-02-02T02:53:12.325Z,9.278362
2023-02-02T02:54:12.320Z,9.278289
2023-02-02T02:55:12.307Z,9.278242
2023-02-02T02:56:12.307Z,9.278382
2023-02-02T02:57:12.260Z,9.278529
2023-02-02T02:58:12.228Z,9.278281
2023-02-02T02:59:12.251Z,9.278314
2023-02-02T03:00:12.200Z,9.278171
2023-02-02T03:01:12.265Z,9.278396
2023-02-02T03:02:12.161Z,9.278182
2023-02-02T03:03:12.163Z,9.278193
2023-02-02T03:04:12.133Z,9.278433
2023-02-02T03:05:12.124Z,9.278422
2023-02-02T03:06:12.125Z,9.278358
2023-02-02T03:07:12.073Z,9.278375
2023-02-02T03:08:12.070Z,9.278477
2023-02-02T03:09:12.048Z,9.278410
2023-02-02T03:10:12.020Z,9.278330
2023-02-02T03:11:12.052Z,9.278296
2023-02-02T03:12:11.999Z,9.278385
2023-02-02T03:13:11.990Z,9.278349
2023-02-02T03:14:11.962Z,9.278369
2023-02-02T03:15:12.015Z,9.278403
2023-02-02T03:16:12.014Z,9.278393
2023-02-02T03:17:11.916Z,9.278311
2023-02-02T03:18:11.891Z,9.278315
2023-02-02T03:19:11.869Z,9.278389
2023-02-02T03:20:11.857Z,9.278387
2023-02-02T03:21:11.869Z,9.278357
2023-02-02T03:22:11.815Z,9.278399
2023-02-02T03:23:11.818Z,9.278288
2023-02-02T03:24:11.800Z,9.278328
2023-02-02T03:25:11.809Z,9.278385
2023-02-02T03:26:11.791Z,9.278346
2023-02-02T03:27:11.762Z,9.278371
2023-02-02T03:28:11.720Z,9.278353
2023-02-02T03:29:11.709Z,9.278244
2023-02-02T03:30:11.691Z,9.278211
2023-02-02T03:31:11.824Z,9.278044
2023-02-02T03:32:11.697Z,9.277844
2023-02-02T03:33:11.629Z,9.278330
2023-02-02T03:34:11.614Z,9.278493
2023-02-02T03:35:11.621Z,9.278633
2023-02-02T03:36:11.606Z,9.278424
2023-02-02T03:37:11.559Z,9.278424
2023-02-02T03:38:11.559Z,9.278309
2023-02-02T03:39:11.522Z,9.278404
2023-02-02T03:40:11.532Z,9.278398
2023-02-02T03:41:11.532Z,9.278250
2023-02-02T03:42:11.496Z,9.278322
2023-02-02T03:43:11.458Z,9.278350
2023-02-02T03:44:11.439Z,9.278345
2023-02-02T03:45:12.431Z,9.278323
2023-02-02T03:46:11.488Z,9.278222
2023-02-02T03:47:11.410Z,9.278152
2023-02-02T03:48:11.371Z,9.278209
2023-02-02T03:49:11.343Z,9.278221
2023-02-02T03:50:11.342Z,9.278222
2023-02-02T03:51:11.354Z,9.278199
2023-02-02T03:52:11.297Z,9.278319
2023-02-02T03:53:11.277Z,9.278444
2023-02-02T03:54:11.270Z,9.278974
2023-02-02T03:55:11.245Z,9.278543
2023-02-02T03:56:11.271Z,9.278500
2023-02-02T03:57:11.204Z,9.278598
2023-02-02T03:58:11.194Z,9.278357
2023-02-02T03:59:11.172Z,9.278262
2023-02-02T04:00:11.164Z,9.278263
2023-02-02T04:01:11.176Z,9.278378
2023-02-02T04:02:11.117Z,9.278439
2023-02-02T04:03:11.174Z,9.278425
2023-02-02T04:04:11.097Z,9.278273
2023-02-02T04:05:11.087Z,9.278157
2023-02-02T04:06:11.096Z,9.278316
2023-02-02T04:07:11.049Z,9.278525
2023-02-02T04:08:11.040Z,9.278642
2023-02-02T04:09:11.013Z,9.278487
2023-02-02T04:10:10.999Z,9.278189
2023-02-02T04:11:10.998Z,9.278522
2023-02-02T04:12:10.964Z,9.278511
2023-02-02T04:13:10.937Z,9.278289
2023-02-02T04:14:10.920Z,9.278532
2023-02-02T04:15:10.900Z,9.278434
2023-02-02T04:16:10.932Z,9.278424
2023-02-02T04:17:10.864Z,9.278334
2023-02-02T04:18:10.875Z,9.278425
2023-02-02T04:19:10.827Z,9.278592
2023-02-02T04:20:10.825Z,9.278416
2023-02-02T04:21:10.837Z,9.278339
2023-02-02T04:22:10.784Z,9.278400
2023-02-02T04:23:10.766Z,9.278266
2023-02-02T04:24:10.756Z,9.278295
2023-02-02T04:25:10.768Z,9.278257
2023-02-02T04:26:10.743Z,9.278158
2023-02-02T04:27:10.717Z,9.278520
2023-02-02T04:28:10.683Z,9.278488
2023-02-02T04:29:10.691Z,9.278579
2023-02-02T04:30:10.696Z,9.278502
2023-02-02T04:31:10.791Z,9.278418
2023-02-02T04:32:10.621Z,9.278008
2023-02-02T04:33:10.613Z,9.278360
2023-02-02T04:34:10.593Z,9.278321
2023-02-02T04:35:10.589Z,9.278278
2023-02-02T04:36:10.589Z,9.278440
2023-02-02T04:37:10.561Z,9.278544
2023-02-02T04:38:10.522Z,9.278403
2023-02-02T04:39:10.505Z,9.278438
2023-02-02T04:40:10.472Z,9.278358
2023-02-02T04:41:10.486Z,9.278333
2023-02-02T04:42:10.444Z,9.278347
2023-02-02T04:43:10.433Z,9.278413
2023-02-02T04:44:10.404Z,9.278612
2023-02-02T04:45:10.388Z,9.278506
2023-02-02T04:46:10.507Z,9.278455
2023-02-02T04:47:10.369Z,9.278215
2023-02-02T04:48:10.353Z,9.278248
2023-02-02T04:49:10.323Z,9.278322
2023-02-02T04:50:10.321Z,9.278261
2023-02-02T04:51:10.329Z,9.278237
2023-02-02T04:52:10.344Z,9.278326
2023-02-02T04:53:10.269Z,9.278400
2023-02-02T04:54:10.246Z,9.278343
2023-02-02T04:55:10.219Z,9.278388
2023-02-02T04:56:10.255Z,9.278379
2023-02-02T04:57:10.183Z,9.278388
2023-02-02T04:58:10.169Z,9.278400
2023-02-02T04:59:10.159Z,9.278370
2023-02-02T05:00:10.143Z,9.278399
2023-02-02T05:01:10.178Z,9.278305
2023-02-02T05:02:10.101Z,9.278466
2023-02-02T05:03:10.088Z,9.278292
2023-02-02T05:04:10.122Z,9.278193
2023-02-02T05:05:10.071Z,9.278150
2023-02-02T05:06:10.096Z,9.278286
2023-02-02T05:07:10.049Z,9.278295
2023-02-02T05:08:09.997Z,9.278267
2023-02-02T05:09:11.055Z,9.278365
2023-02-02T05:10:09.985Z,9.278275
2023-02-02T05:11:10.039Z,9.278393
2023-02-02T05:12:09.930Z,9.278362
2023-02-02T05:13:09.920Z,9.278346
2023-02-02T05:14:09.903Z,9.278452
2023-02-02T05:15:09.898Z,9.278583
2023-02-02T05:16:09.917Z,9.278520
2023-02-02T05:17:09.844Z,9.278399
2023-02-02T05:18:09.830Z,9.278368
2023-02-02T05:19:09.809Z,9.278384
2023-02-02T05:20:09.802Z,9.278418
2023-02-02T05:21:09.773Z,9.278317
2023-02-02T05:22:09.797Z,9.278251
2023-02-02T05:23:09.735Z,9.278336
2023-02-02T05:24:09.732Z,9.278512
2023-02-02T05:25:09.707Z,9.278329
2023-02-02T05:26:09.741Z,9.278461
2023-02-02T05:27:09.705Z,9.278580
2023-02-02T05:28:09.686Z,9.278404
2023-02-02T05:29:09.640Z,9.278332
2023-02-02T05:30:09.621Z,9.278356
2023-02-02T05:31:09.701Z,9.278443
2023-02-02T05:32:09.795Z,9.278410
2023-02-02T05:33:09.568Z,9.278353
2023-02-02T05:34:09.550Z,9.278340
2023-02-02T05:35:09.553Z,9.278427
2023-02-02T05:36:09.517Z,9.278266
2023-02-02T05:37:09.546Z,9.278249
2023-02-02T05:38:09.493Z,9.278346
2023-02-02T05:39:09.482Z,9.278364
2023-02-02T05:40:09.466Z,9.278275
2023-02-02T05:41:09.463Z,9.278384
2023-02-02T05:42:09.587Z,9.278487
2023-02-02T05:43:09.418Z,9.278383
2023-02-02T05:44:09.391Z,9.278329
2023-02-02T05:45:09.372Z,9.278420
2023-02-02T05:46:09.474Z,9.278499
2023-02-02T05:47:09.377Z,9.278384
2023-02-02T05:48:09.326Z,9.278380
2023-02-02T05:49:09.303Z,9.278280
2023-02-02T05:50:09.296Z,9.278316
2023-02-02T05:51:09.273Z,9.278340
2023-02-02T05:52:09.293Z,9.278192
2023-02-02T05:53:09.228Z,9.278253
2023-02-02T05:54:09.224Z,9.278451
2023-02-02T05:55:09.197Z,9.278261
2023-02-02T05:56:09.186Z,9.278219
2023-02-02T05:57:09.192Z,9.278451
2023-02-02T05:58:09.155Z,9.278448
2023-02-02T05:59:09.128Z,9.278449
2023-02-02T06:00:09.209Z,9.278419
2023-02-02T06:01:09.169Z,9.278278
2023-02-02T06:02:09.143Z,9.278351
2023-02-02T06:03:09.189Z,9.278399
2023-02-02T06:04:09.117Z,9.278424
2023-02-02T06:05:09.052Z,9.278337
2023-02-02T06:06:09.019Z,9.278316
2023-02-02T06:07:09.074Z,9.278315
2023-02-02T06:08:08.985Z,9.278470
2023-02-02T06:09:09.007Z,9.278458
2023-02-02T06:10:08.958Z,9.278325
2023-02-02T06:11:08.931Z,9.278276
2023-02-02T06:12:08.946Z,9.278232
2023-02-02T06:13:08.895Z,9.278234
2023-02-02T06:14:08.893Z,9.278328
2023-02-02T06:15:08.881Z,9.278392
2023-02-02T06:16:08.935Z,9.278300
2023-02-02T06:17:08.865Z,9.278298
2023-02-02T06:18:08.809Z,9.278249
2023-02-02T06:19:08.825Z,9.278217
2023-02-02T06:20:08.799Z,9.278305
2023-02-02T06:21:08.784Z,9.278341
2023-02-02T06:22:08.777Z,9.278395
2023-02-02T06:23:08.724Z,9.278497
2023-02-02T06:24:08.713Z,9.278424
2023-02-02T06:25:08.707Z,9.278370
2023-02-02T06:26:08.698Z,9.278258
2023-02-02T06:27:08.708Z,9.278217
2023-02-02T06:28:08.633Z,9.278098
2023-02-02T06:29:09.669Z,9.278195
2023-02-02T06:30:08.622Z,9.278240
2023-02-02T06:31:08.669Z,9.278094
2023-02-02T06:32:08.727Z,9.278147
2023-02-02T06:33:08.574Z,9.278470
2023-02-02T06:34:08.547Z,9.278500
2023-02-02T06:35:08.528Z,9.278664
2023-02-02T06:36:08.510Z,9.278397
2023-02-02T06:37:08.520Z,9.277992
2023-02-02T06:38:08.474Z,9.278007
2023-02-02T06:39:08.501Z,9.278053
2023-02-02T06:40:08.437Z,9.278003
2023-02-02T06:41:08.426Z,9.278011
2023-02-02T06:42:20.470Z,9.277940
2023-02-02T06:43:10.393Z,9.278006
2023-02-02T06:44:08.377Z,9.278090
2023-02-02T06:45:08.354Z,9.278052
2023-02-02T06:46:08.367Z,9.278089
2023-02-02T06:47:08.362Z,9.278113
2023-02-02T06:48:08.309Z,9.277974
2023-02-02T06:49:08.290Z,9.278055
2023-02-02T06:50:08.281Z,9.278139
2023-02-02T06:51:08.255Z,9.278172
2023-02-02T06:52:08.266Z,9.278180
2023-02-02T06:53:08.281Z,9.278148
2023-02-02T06:54:08.213Z,9.278087
2023-02-02T06:55:08.177Z,9.277859
2023-02-02T06:56:08.161Z,9.278071
2023-02-02T06:57:08.185Z,9.278144
2023-02-02T06:58:08.148Z,9.278160
2023-02-02T06:59:08.234Z,9.278162
2023-02-02T07:00:08.101Z,9.278091
2023-02-02T07:01:08.136Z,9.278021
2023-02-02T07:02:08.210Z,9.277946
2023-02-02T07:03:08.091Z,9.278055
2023-02-02T07:04:08.039Z,9.278110
2023-02-02T07:05:08.017Z,9.278018
2023-02-02T07:06:08.028Z,9.277870
2023-02-02T07:07:08.021Z,9.278060
2023-02-02T07:08:07.989Z,9.278209
2023-02-02T07:09:07.956Z,9.278343
2023-02-02T07:10:07.917Z,9.278165
2023-02-02T07:11:38.175Z,9.278042
2023-02-02T07:12:08.929Z,9.278131
2023-02-02T07:13:07.878Z,9.278598
2023-02-02T07:14:07.861Z,9.278366
2023-02-02T07:15:07.848Z,9.278057
2023-02-02T07:16:07.889Z,9.277951
2023-02-02T07:17:07.879Z,9.277897
2023-02-02T07:18:07.799Z,9.278154
2023-02-02T07:19:07.785Z,9.277704
2023-02-02T07:20:07.771Z,9.277489
2023-02-02T07:21:07.739Z,9.277209
2023-02-02T07:22:10.292Z,9.277426
2023-02-02T07:23:07.705Z,9.277928
2023-02-02T07:24:07.702Z,9.277827
2023-02-02T07:25:07.667Z,9.278003
2023-02-02T07:26:07.650Z,9.277830
2023-02-02T07:27:07.679Z,9.278210
2023-02-02T07:28:07.618Z,9.278123
2023-02-02T07:29:07.605Z,9.277912
2023-02-02T07:30:07.593Z,9.277927
2023-02-02T07:31:07.661Z,9.277725
2023-02-02T07:32:07.616Z,9.278135
2023-02-02T07:33:07.552Z,9.278148
2023-02-02T07:34:07.523Z,9.278272
2023-02-02T07:35:07.606Z,9.278674
2023-02-02T07:36:07.482Z,9.278605
2023-02-02T07:37:07.498Z,9.278580
2023-02-02T07:38:07.446Z,9.278510
2023-02-02T07:39:07.440Z,9.278960
2023-02-02T07:40:07.415Z,9.278677
2023-02-02T07:41:07.413Z,9.278449
2023-02-02T07:42:07.412Z,9.278470
2023-02-02T07:43:07.390Z,9.278386
2023-02-02T07:44:07.359Z,9.278090
2023-02-02T07:45:24.624Z,9.278152
2023-02-02T07:46:08.386Z,9.278035
2023-02-02T07:47:07.348Z,9.278200
2023-02-02T07:48:07.283Z,9.278357
2023-02-02T07:49:07.268Z,9.278361
2023-02-02T07:50:07.246Z,9.278538
2023-02-02T07:51:07.256Z,9.278603
2023-02-02T07:52:07.238Z,9.278908
2023-02-02T07:53:07.197Z,9.278939
2023-02-02T07:54:07.191Z,9.278966
2023-02-02T07:55:14.544Z,9.278835
2023-02-02T07:56:09.154Z,9.279121
2023-02-02T07:57:07.167Z,9.279638
2023-02-02T07:58:07.120Z,9.278969
2023-02-02T07:59:07.106Z,9.278813
2023-02-02T08:00:07.086Z,9.278931
2023-02-02T08:01:07.127Z,9.278916
2023-02-02T08:02:07.112Z,9.278246
2023-02-02T08:03:07.097Z,9.278430
2023-02-02T08:04:07.026Z,9.278510
2023-02-02T08:05:07.023Z,9.277770
2023-02-02T08:06:06.977Z,9.278518
2023-02-02T08:07:06.960Z,9.279258
2023-02-02T08:08:06.974Z,9.279361
2023-02-02T08:09:06.924Z,9.279233
2023-02-02T08:10:06.905Z,9.279178
2023-02-02T08:11:06.881Z,9.278414
2023-02-02T08:12:06.936Z,9.278410
2023-02-02T08:13:06.887Z,9.278471
2023-02-02T08:14:06.842Z,9.278453
2023-02-02T08:15:07.510Z,9.278335
2023-02-02T08:16:06.884Z,9.278744
2023-02-02T08:17:06.793Z,9.278755
2023-02-02T08:18:06.805Z,9.278755
2023-02-02T08:19:06.757Z,9.278645
2023-02-02T08:20:06.743Z,9.278575
2023-02-02T08:21:06.722Z,9.278436
2023-02-02T08:22:06.710Z,9.278498
2023-02-02T08:23:06.726Z,9.278337
2023-02-02T08:24:06.673Z,9.278438
2023-02-02T08:25:06.659Z,9.278597
2023-02-02T08:26:06.662Z,9.278469
2023-02-02T08:27:06.648Z,9.278515
2023-02-02T08:28:06.632Z,9.278692
2023-02-02T08:29:06.589Z,9.278511
2023-02-02T08:30:06.592Z,9.278812
2023-02-02T08:31:06.598Z,9.278512
2023-02-02T08:32:06.553Z,9.278438
2023-02-02T08:33:06.545Z,9.278479
2023-02-02T08:34:06.536Z,9.278036
2023-02-02T08:35:06.487Z,9.277943
2023-02-02T08:36:06.485Z,9.277838
2023-02-02T08:37:06.473Z,9.278280
2023-02-02T08:38:06.476Z,9.278088
2023-02-02T08:39:06.424Z,9.278212
2023-02-02T08:40:06.473Z,9.278172
2023-02-02T08:41:06.393Z,9.278025
2023-02-02T08:42:07.386Z,9.278249
2023-02-02T08:43:06.382Z,9.277565
2023-02-02T08:44:06.354Z,9.278111
2023-02-02T08:46:02.074Z,9.278292
2023-02-02T08:46:07.298Z,9.278193
2023-02-02T08:47:06.302Z,9.278418
2023-02-02T08:48:12.035Z,9.278445
2023-02-02T08:49:08.255Z,9.278394
2023-02-02T08:50:06.265Z,9.278490
2023-02-02T08:51:06.223Z,9.278363
2023-02-02T08:52:06.203Z,9.278370
2023-02-02T08:53:06.225Z,9.278345
2023-02-02T08:54:06.176Z,9.278313
2023-02-02T08:55:06.217Z,9.278393
2023-02-02T08:56:06.162Z,9.278173
2023-02-02T08:57:06.128Z,9.277926
2023-02-02T08:58:06.143Z,9.278048
2023-02-02T08:59:06.086Z,9.277933
2023-02-02T09:00:06.086Z,9.278419
2023-02-02T09:01:06.126Z,9.278522
2023-02-02T09:02:06.069Z,9.278460
2023-02-02T09:03:06.046Z,9.278391
2023-02-02T09:04:05.993Z,9.278528
2023-02-02T09:05:05.994Z,9.278461
2023-02-02T09:06:05.977Z,9.278501
2023-02-02T09:07:05.958Z,9.278331
2023-02-02T09:08:05.973Z,9.278239
2023-02-02T09:09:05.944Z,9.278305
2023-02-02T09:10:05.941Z,9.278443
2023-02-02T09:11:05.912Z,9.278306
2023-02-02T09:12:05.860Z,9.278482
2023-02-02T09:13:05.869Z,9.278457
2023-02-02T09:14:05.824Z,9.278221
2023-02-02T09:15:05.863Z,9.278597
2023-02-02T09:16:05.846Z,9.278664
2023-02-02T09:17:05.769Z,9.278604
2023-02-02T09:18:05.808Z,9.278608
2023-02-02T09:19:05.752Z,9.278586
2023-02-02T09:20:05.718Z,9.278524
2023-02-02T09:21:05.712Z,9.278558
2023-02-02T09:22:05.690Z,9.278613
2023-02-02T09:23:05.704Z,9.278592
2023-02-02T09:24:05.660Z,9.278471
2023-02-02T09:25:05.632Z,9.278546
2023-02-02T09:26:05.626Z,9.278522
2023-02-02T09:27:05.586Z,9.278454
2023-02-02T09:28:06.641Z,9.278463
2023-02-02T09:29:05.569Z,9.278624
2023-02-02T09:30:05.548Z,9.277639
2023-02-02T09:31:05.581Z,9.277310
2023-02-02T09:32:05.613Z,9.277747
2023-02-02T09:33:05.592Z,9.277978
2023-02-02T09:34:05.499Z,9.278454
2023-02-02T09:35:05.584Z,9.278594
2023-02-02T09:36:05.459Z,9.278556
2023-02-02T09:37:05.426Z,9.278477
2023-02-02T09:38:05.454Z,9.278230
2023-02-02T09:39:05.414Z,9.278264
2023-02-02T09:40:05.384Z,9.278222
2023-02-02T09:41:07.544Z,9.278334
2023-02-02T09:42:05.353Z,9.278477
2023-02-02T09:43:05.379Z,9.278384
2023-02-02T09:44:05.308Z,9.278503
2023-02-02T09:45:06.338Z,9.278501
2023-02-02T09:46:05.363Z,9.278461
2023-02-02T09:47:05.256Z,9.278474
2023-02-02T09:48:05.517Z,9.278472
2023-02-02T09:49:05.255Z,9.278402
2023-02-02T09:50:05.224Z,9.278341
2023-02-02T09:51:06.789Z,9.278378
2023-02-02T09:52:05.191Z,9.278423
2023-02-02T09:53:07.774Z,9.278449
2023-02-02T09:54:07.141Z,9.278400
2023-02-02T09:55:05.847Z,9.278403
2023-02-02T09:56:05.618Z,9.278318
2023-02-02T09:57:05.263Z,9.278281
2023-02-02T09:58:05.657Z,9.278355
2023-02-02T09:59:19.199Z,9.278415
2023-02-02T10:00:07.055Z,9.278434
2023-02-02T10:01:05.072Z,9.278465
2023-02-02T10:02:06.293Z,9.278447
2023-02-02T10:03:05.031Z,9.278230
2023-02-02T10:04:05.031Z,9.278217
2023-02-02T10:05:06.775Z,9.278214
2023-02-02T10:06:04.950Z,9.278332
2023-02-02T10:07:04.931Z,9.278281
2023-02-02T10:08:04.949Z,9.278303
2023-02-02T10:09:04.925Z,9.278433
2023-02-02T10:10:04.872Z,9.278339
2023-02-02T10:11:04.888Z,9.278357
2023-02-02T10:12:04.845Z,9.278272
2023-02-02T10:13:04.952Z,9.278325
2023-02-02T10:14:04.824Z,9.278347
2023-02-02T10:15:05.815Z,9.278307
2023-02-02T10:16:04.832Z,9.278270
2023-02-02T10:17:04.745Z,9.278243
2023-02-02T10:18:06.102Z,9.278367
2023-02-02T10:19:05.739Z,9.278461
2023-02-02T10:20:04.708Z,9.278332
2023-02-02T10:21:04.675Z,9.278380
2023-02-02T10:22:04.704Z,9.278381
2023-02-02T10:23:04.692Z,9.278379
2023-02-02T10:24:04.660Z,9.278263
2023-02-02T10:25:04.617Z,9.278257
2023-02-02T10:26:04.627Z,9.278201
2023-02-02T10:27:05.042Z,9.278304
2023-02-02T10:28:04.781Z,9.278293
2023-02-02T10:29:04.586Z,9.278301
2023-02-02T10:30:04.531Z,9.278309
2023-02-02T10:31:04.626Z,9.278298
2023-02-02T10:32:04.586Z,9.278260
2023-02-02T10:33:04.770Z,9.278256
2023-02-02T10:34:04.474Z,9.278217
2023-02-02T10:35:13.529Z,9.278228
2023-02-02T10:36:06.439Z,9.278296
2023-02-02T10:37:04.405Z,9.278255
2023-02-02T10:38:04.428Z,9.278236
2023-02-02T10:39:04.383Z,9.278238
2023-02-02T10:40:04.412Z,9.278235
2023-02-02T10:41:04.355Z,9.278208
2023-02-02T10:42:04.315Z,9.278239
2023-02-02T10:43:04.326Z,9.278254
2023-02-02T10:44:04.302Z,9.278264
2023-02-02T10:45:04.273Z,9.278277
2023-02-02T10:46:04.283Z,9.278217
2023-02-02T10:47:04.259Z,9.278227
2023-02-02T10:48:04.255Z,9.278210
2023-02-02T10:49:04.194Z,9.278167
2023-02-02T10:50:04.209Z,9.278192
2023-02-02T10:51:04.197Z,9.278207
2023-02-02T10:52:04.140Z,9.278296
2023-02-02T10:53:04.192Z,9.278188
2023-02-02T10:54:04.125Z,9.278028
2023-02-02T10:55:04.641Z,9.278167
2023-02-02T10:56:05.095Z,9.278306
2023-02-02T10:57:04.067Z,9.278375
2023-02-02T10:58:04.055Z,9.278316
2023-02-02T10:59:04.067Z,9.278075
2023-02-02T11:00:04.024Z,9.278109
2023-02-02T11:01:04.009Z,9.278111
2023-02-02T11:02:20.001Z,9.278117
2023-02-02T11:03:06.031Z,9.278132
2023-02-02T11:04:03.946Z,9.278155
2023-02-02T11:05:03.929Z,9.278330
2023-02-02T11:06:03.909Z,9.278168
2023-02-02T11:07:03.911Z,9.278069
2023-02-02T11:08:03.894Z,9.278071
2023-02-02T11:09:03.898Z,9.278172
2023-02-02T11:10:03.848Z,9.278152
2023-02-02T11:11:03.846Z,9.278123
2023-02-02T11:12:03.812Z,9.278116
2023-02-02T11:13:03.813Z,9.278244
2023-02-02T11:14:03.840Z,9.278197
2023-02-02T11:15:03.821Z,9.278152
2023-02-02T11:16:05.827Z,9.278190
2023-02-02T11:17:04.728Z,9.278129
2023-02-02T11:18:03.705Z,9.278068
2023-02-02T11:19:03.734Z,9.278007
2023-02-02T11:20:03.711Z,9.277881
2023-02-02T11:21:03.647Z,9.278146
2023-02-02T11:22:04.696Z,9.278243
2023-02-02T11:23:03.619Z,9.278071
2023-02-02T11:24:03.639Z,9.278234
2023-02-02T11:25:03.630Z,9.278234
2023-02-02T11:26:03.582Z,9.278080
2023-02-02T11:27:03.566Z,9.278112
2023-02-02T11:28:03.554Z,9.278166
2023-02-02T11:29:03.561Z,9.278027
2023-02-02T11:30:03.528Z,9.278232
2023-02-02T11:31:03.658Z,9.277998
2023-02-02T11:32:03.519Z,9.278129
2023-02-02T11:33:03.452Z,9.278021
2023-02-02T11:34:03.462Z,9.278173
2023-02-02T11:35:03.415Z,9.278218
2023-02-02T11:36:03.399Z,9.278270
2023-02-02T11:37:03.499Z,9.278281
2023-02-02T11:38:03.363Z,9.278239
2023-02-02T11:39:04.387Z,9.278398
2023-02-02T11:40:03.346Z,9.278447
2023-02-02T11:41:03.330Z,9.278370
2023-02-02T11:42:03.292Z,9.278475
2023-02-02T11:43:03.290Z,9.278327
2023-02-02T11:44:03.296Z,9.278285